sensor_id;sensor_type;location;lat;lon;timestamp;P1;durP1;ratioP1;P2;durP2;ratioP2
5730;SDS011;2890;51.950;7.668;2024-03-29T00:01:37;5.93;;;1.40;;
5730;SDS011;2890;51.950;7.668;2024-03-29T00:04:02;3.90;;;1.63;;
5730;SDS011;2890;51.950;7.668;2024-03-29T00:06:28;2.40;;;1.30;;
5730;SDS011;2890;51.950;7.668;2024-03-29T00:08:53;3.87;;;1.13;;
5730;SDS011;2890;51.950;7.668;2024-03-29T00:11:19;19.73;;;1.43;;
5730;SDS011;2890;51.950;7.668;2024-03-29T00:13:44;6.30;;;1.47;;
5730;SDS011;2890;51.950;7.668;2024-03-29T00:16:10;2.53;;;1.03;;
5730;SDS011;2890;51.950;7.668;2024-03-29T00:18:37;6.53;;;1.63;;
5730;SDS011;2890;51.950;7.668;2024-03-29T00:21:03;2.70;;;0.90;;
5730;SDS011;2890;51.950;7.668;2024-03-29T00:23:29;2.90;;;1.30;;
5730;SDS011;2890;51.950;7.668;2024-03-29T00:25:54;6.40;;;1.20;;
5730;SDS011;2890;51.950;7.668;2024-03-29T00:28:20;2.23;;;1.10;;
5730;SDS011;2890;51.950;7.668;2024-03-29T00:30:46;2.10;;;0.97;;
5730;SDS011;2890;51.950;7.668;2024-03-29T00:33:11;3.03;;;1.10;;
5730;SDS011;2890;51.950;7.668;2024-03-29T00:35:38;2.40;;;1.10;;
5730;SDS011;2890;51.950;7.668;2024-03-29T00:38:04;4.47;;;1.37;;
5730;SDS011;2890;51.950;7.668;2024-03-29T00:40:29;2.67;;;1.10;;
5730;SDS011;2890;51.950;7.668;2024-03-29T00:42:55;3.33;;;1.27;;
5730;SDS011;2890;51.950;7.668;2024-03-29T00:45:20;1.90;;;1.37;;
5730;SDS011;2890;51.950;7.668;2024-03-29T00:47:46;2.90;;;1.27;;
5730;SDS011;2890;51.950;7.668;2024-03-29T00:50:11;3.80;;;1.00;;
5730;SDS011;2890;51.950;7.668;2024-03-29T00:52:38;2.20;;;0.90;;
5730;SDS011;2890;51.950;7.668;2024-03-29T00:55:04;2.10;;;0.83;;
5730;SDS011;2890;51.950;7.668;2024-03-29T00:57:30;2.63;;;1.10;;
5730;SDS011;2890;51.950;7.668;2024-03-29T00:59:56;1.90;;;1.00;;
5730;SDS011;2890;51.950;7.668;2024-03-29T01:02:21;5.07;;;0.93;;
5730;SDS011;2890;51.950;7.668;2024-03-29T01:04:47;1.53;;;0.80;;
5730;SDS011;2890;51.950;7.668;2024-03-29T01:07:13;4.73;;;1.60;;
5730;SDS011;2890;51.950;7.668;2024-03-29T01:09:40;1.97;;;0.60;;
5730;SDS011;2890;51.950;7.668;2024-03-29T01:12:05;2.00;;;0.90;;
5730;SDS011;2890;51.950;7.668;2024-03-29T01:14:31;2.80;;;0.90;;
5730;SDS011;2890;51.950;7.668;2024-03-29T01:16:57;2.77;;;0.80;;
5730;SDS011;2890;51.950;7.668;2024-03-29T01:19:22;3.53;;;0.90;;
5730;SDS011;2890;51.950;7.668;2024-03-29T01:21:48;2.83;;;1.00;;
5730;SDS011;2890;51.950;7.668;2024-03-29T01:24:13;3.30;;;1.00;;
5730;SDS011;2890;51.950;7.668;2024-03-29T01:26:40;2.17;;;0.97;;
5730;SDS011;2890;51.950;7.668;2024-03-29T01:29:06;4.57;;;1.20;;
5730;SDS011;2890;51.950;7.668;2024-03-29T01:31:31;1.77;;;1.23;;
5730;SDS011;2890;51.950;7.668;2024-03-29T01:33:57;5.70;;;1.20;;
5730;SDS011;2890;51.950;7.668;2024-03-29T01:36:22;1.60;;;0.80;;
5730;SDS011;2890;51.950;7.668;2024-03-29T01:38:48;5.37;;;1.03;;
5730;SDS011;2890;51.950;7.668;2024-03-29T01:41:14;3.37;;;1.30;;
5730;SDS011;2890;51.950;7.668;2024-03-29T01:43:40;1.73;;;0.83;;
5730;SDS011;2890;51.950;7.668;2024-03-29T01:46:07;3.67;;;1.13;;
5730;SDS011;2890;51.950;7.668;2024-03-29T01:48:34;2.67;;;1.27;;
5730;SDS011;2890;51.950;7.668;2024-03-29T01:51:00;3.90;;;1.10;;
5730;SDS011;2890;51.950;7.668;2024-03-29T01:53:27;1.80;;;0.80;;
5730;SDS011;2890;51.950;7.668;2024-03-29T01:55:54;6.10;;;1.20;;
5730;SDS011;2890;51.950;7.668;2024-03-29T01:58:21;2.60;;;0.77;;
5730;SDS011;2890;51.950;7.668;2024-03-29T02:00:50;4.50;;;1.10;;
5730;SDS011;2890;51.950;7.668;2024-03-29T02:03:17;1.47;;;0.70;;
5730;SDS011;2890;51.950;7.668;2024-03-29T02:05:44;2.47;;;1.10;;
5730;SDS011;2890;51.950;7.668;2024-03-29T02:08:11;2.10;;;0.93;;
5730;SDS011;2890;51.950;7.668;2024-03-29T02:10:38;3.07;;;0.97;;
5730;SDS011;2890;51.950;7.668;2024-03-29T02:13:04;3.33;;;1.17;;
5730;SDS011;2890;51.950;7.668;2024-03-29T02:15:31;2.17;;;1.10;;
5730;SDS011;2890;51.950;7.668;2024-03-29T02:17:59;3.83;;;0.90;;
5730;SDS011;2890;51.950;7.668;2024-03-29T02:20:25;2.27;;;0.90;;
5730;SDS011;2890;51.950;7.668;2024-03-29T02:22:53;5.10;;;0.97;;
5730;SDS011;2890;51.950;7.668;2024-03-29T02:25:22;3.63;;;1.03;;
5730;SDS011;2890;51.950;7.668;2024-03-29T02:27:48;3.10;;;1.00;;
5730;SDS011;2890;51.950;7.668;2024-03-29T02:30:15;2.97;;;0.90;;
5730;SDS011;2890;51.950;7.668;2024-03-29T02:32:42;1.73;;;0.70;;
5730;SDS011;2890;51.950;7.668;2024-03-29T02:35:08;2.53;;;0.90;;
5730;SDS011;2890;51.950;7.668;2024-03-29T02:37:35;3.37;;;1.40;;
5730;SDS011;2890;51.950;7.668;2024-03-29T02:40:02;1.37;;;0.97;;
5730;SDS011;2890;51.950;7.668;2024-03-29T02:42:30;3.80;;;1.30;;
5730;SDS011;2890;51.950;7.668;2024-03-29T02:44:57;1.83;;;1.00;;
5730;SDS011;2890;51.950;7.668;2024-03-29T02:47:23;1.63;;;1.10;;
5730;SDS011;2890;51.950;7.668;2024-03-29T02:49:49;1.50;;;1.00;;
5730;SDS011;2890;51.950;7.668;2024-03-29T02:52:15;1.80;;;1.00;;
5730;SDS011;2890;51.950;7.668;2024-03-29T02:54:41;1.90;;;0.90;;
5730;SDS011;2890;51.950;7.668;2024-03-29T02:57:07;1.87;;;1.40;;
5730;SDS011;2890;51.950;7.668;2024-03-29T02:59:34;2.60;;;0.90;;
5730;SDS011;2890;51.950;7.668;2024-03-29T03:02:01;4.07;;;1.10;;
5730;SDS011;2890;51.950;7.668;2024-03-29T03:04:27;2.80;;;1.47;;
5730;SDS011;2890;51.950;7.668;2024-03-29T03:06:53;1.80;;;1.10;;
5730;SDS011;2890;51.950;7.668;2024-03-29T03:09:21;5.40;;;1.23;;
5730;SDS011;2890;51.950;7.668;2024-03-29T03:12:05;2.97;;;1.00;;
5730;SDS011;2890;51.950;7.668;2024-03-29T03:14:32;1.80;;;1.33;;
5730;SDS011;2890;51.950;7.668;2024-03-29T03:17:00;4.00;;;1.10;;
5730;SDS011;2890;51.950;7.668;2024-03-29T03:19:25;1.60;;;0.90;;
5730;SDS011;2890;51.950;7.668;2024-03-29T03:21:52;2.17;;;1.20;;
5730;SDS011;2890;51.950;7.668;2024-03-29T03:24:17;2.00;;;0.83;;
5730;SDS011;2890;51.950;7.668;2024-03-29T03:26:44;2.53;;;0.83;;
5730;SDS011;2890;51.950;7.668;2024-03-29T03:29:09;1.97;;;0.90;;
5730;SDS011;2890;51.950;7.668;2024-03-29T03:31:36;1.80;;;1.23;;
5730;SDS011;2890;51.950;7.668;2024-03-29T03:34:02;2.23;;;1.07;;
5730;SDS011;2890;51.950;7.668;2024-03-29T03:36:29;1.70;;;0.97;;
5730;SDS011;2890;51.950;7.668;2024-03-29T03:38:54;3.20;;;0.80;;
5730;SDS011;2890;51.950;7.668;2024-03-29T03:41:21;2.77;;;0.90;;
5730;SDS011;2890;51.950;7.668;2024-03-29T03:43:46;1.90;;;0.90;;
5730;SDS011;2890;51.950;7.668;2024-03-29T03:46:13;1.77;;;0.73;;
5730;SDS011;2890;51.950;7.668;2024-03-29T03:48:38;5.13;;;0.80;;
5730;SDS011;2890;51.950;7.668;2024-03-29T03:51:06;3.23;;;0.73;;
5730;SDS011;2890;51.950;7.668;2024-03-29T03:53:32;2.60;;;1.03;;
5730;SDS011;2890;51.950;7.668;2024-03-29T03:55:58;1.70;;;0.80;;
5730;SDS011;2890;51.950;7.668;2024-03-29T03:58:24;2.43;;;1.10;;
5730;SDS011;2890;51.950;7.668;2024-03-29T04:00:50;2.43;;;1.10;;
5730;SDS011;2890;51.950;7.668;2024-03-29T04:03:15;1.97;;;1.43;;
5730;SDS011;2890;51.950;7.668;2024-03-29T04:05:42;2.67;;;1.30;;
5730;SDS011;2890;51.950;7.668;2024-03-29T04:08:09;1.60;;;0.83;;
5730;SDS011;2890;51.950;7.668;2024-03-29T04:10:37;3.50;;;1.10;;
5730;SDS011;2890;51.950;7.668;2024-03-29T04:13:03;2.20;;;0.83;;
5730;SDS011;2890;51.950;7.668;2024-03-29T04:15:30;3.20;;;1.30;;
5730;SDS011;2890;51.950;7.668;2024-03-29T04:17:58;2.17;;;0.87;;
5730;SDS011;2890;51.950;7.668;2024-03-29T04:20:25;1.70;;;0.93;;
5730;SDS011;2890;51.950;7.668;2024-03-29T04:22:50;1.77;;;1.00;;
5730;SDS011;2890;51.950;7.668;2024-03-29T04:25:18;5.10;;;1.10;;
5730;SDS011;2890;51.950;7.668;2024-03-29T04:27:44;3.60;;;0.90;;
5730;SDS011;2890;51.950;7.668;2024-03-29T04:30:10;1.80;;;1.00;;
5730;SDS011;2890;51.950;7.668;2024-03-29T04:32:36;1.63;;;0.77;;
5730;SDS011;2890;51.950;7.668;2024-03-29T04:35:03;1.53;;;0.77;;
5730;SDS011;2890;51.950;7.668;2024-03-29T04:37:29;4.50;;;0.70;;
5730;SDS011;2890;51.950;7.668;2024-03-29T04:39:56;2.13;;;0.83;;
5730;SDS011;2890;51.950;7.668;2024-03-29T04:42:24;2.87;;;1.17;;
5730;SDS011;2890;51.950;7.668;2024-03-29T04:44:50;2.10;;;1.00;;
5730;SDS011;2890;51.950;7.668;2024-03-29T04:47:17;2.10;;;0.90;;
5730;SDS011;2890;51.950;7.668;2024-03-29T04:49:43;4.10;;;1.20;;
5730;SDS011;2890;51.950;7.668;2024-03-29T04:52:10;3.07;;;1.10;;
5730;SDS011;2890;51.950;7.668;2024-03-29T04:54:36;4.60;;;1.13;;
5730;SDS011;2890;51.950;7.668;2024-03-29T04:57:03;3.07;;;0.97;;
5730;SDS011;2890;51.950;7.668;2024-03-29T04:59:32;3.53;;;1.10;;
5730;SDS011;2890;51.950;7.668;2024-03-29T05:01:59;2.47;;;0.80;;
5730;SDS011;2890;51.950;7.668;2024-03-29T05:04:26;2.10;;;1.03;;
5730;SDS011;2890;51.950;7.668;2024-03-29T05:06:52;2.20;;;0.93;;
5730;SDS011;2890;51.950;7.668;2024-03-29T05:09:19;3.53;;;1.27;;
5730;SDS011;2890;51.950;7.668;2024-03-29T05:11:46;3.87;;;0.90;;
5730;SDS011;2890;51.950;7.668;2024-03-29T05:14:12;3.53;;;1.23;;
5730;SDS011;2890;51.950;7.668;2024-03-29T05:16:41;3.77;;;0.97;;
5730;SDS011;2890;51.950;7.668;2024-03-29T05:19:07;2.27;;;1.10;;
5730;SDS011;2890;51.950;7.668;2024-03-29T05:21:33;2.13;;;1.00;;
5730;SDS011;2890;51.950;7.668;2024-03-29T05:23:59;2.90;;;1.53;;
5730;SDS011;2890;51.950;7.668;2024-03-29T05:26:26;4.67;;;1.20;;
5730;SDS011;2890;51.950;7.668;2024-03-29T05:28:51;8.13;;;1.70;;
5730;SDS011;2890;51.950;7.668;2024-03-29T05:31:22;1.70;;;0.90;;
5730;SDS011;2890;51.950;7.668;2024-03-29T05:33:49;4.40;;;0.93;;
5730;SDS011;2890;51.950;7.668;2024-03-29T05:36:16;3.50;;;1.10;;
5730;SDS011;2890;51.950;7.668;2024-03-29T05:38:43;4.60;;;1.27;;
5730;SDS011;2890;51.950;7.668;2024-03-29T05:41:10;8.50;;;1.53;;
5730;SDS011;2890;51.950;7.668;2024-03-29T05:43:38;6.07;;;1.47;;
5730;SDS011;2890;51.950;7.668;2024-03-29T05:46:04;5.47;;;1.10;;
5730;SDS011;2890;51.950;7.668;2024-03-29T05:48:31;2.10;;;1.20;;
5730;SDS011;2890;51.950;7.668;2024-03-29T05:50:59;7.50;;;1.87;;
5730;SDS011;2890;51.950;7.668;2024-03-29T05:53:25;5.20;;;1.67;;
5730;SDS011;2890;51.950;7.668;2024-03-29T05:55:52;3.70;;;1.33;;
5730;SDS011;2890;51.950;7.668;2024-03-29T05:58:18;3.77;;;1.60;;
5730;SDS011;2890;51.950;7.668;2024-03-29T06:00:46;1.87;;;1.30;;
5730;SDS011;2890;51.950;7.668;2024-03-29T06:03:13;4.10;;;2.33;;
5730;SDS011;2890;51.950;7.668;2024-03-29T06:05:39;9.33;;;1.87;;
5730;SDS011;2890;51.950;7.668;2024-03-29T06:08:07;4.17;;;1.30;;
5730;SDS011;2890;51.950;7.668;2024-03-29T06:10:34;3.83;;;1.87;;
5730;SDS011;2890;51.950;7.668;2024-03-29T06:13:00;2.67;;;1.40;;
5730;SDS011;2890;51.950;7.668;2024-03-29T06:15:32;3.80;;;1.77;;
5730;SDS011;2890;51.950;7.668;2024-03-29T06:18:16;2.53;;;1.70;;
5730;SDS011;2890;51.950;7.668;2024-03-29T06:20:43;3.30;;;1.10;;
5730;SDS011;2890;51.950;7.668;2024-03-29T06:23:11;2.73;;;1.60;;
5730;SDS011;2890;51.950;7.668;2024-03-29T06:25:38;5.10;;;1.80;;
5730;SDS011;2890;51.950;7.668;2024-03-29T06:28:05;4.93;;;1.73;;
5730;SDS011;2890;51.950;7.668;2024-03-29T06:30:32;4.00;;;1.40;;
5730;SDS011;2890;51.950;7.668;2024-03-29T06:32:58;4.27;;;1.70;;
5730;SDS011;2890;51.950;7.668;2024-03-29T06:35:27;2.87;;;1.77;;
5730;SDS011;2890;51.950;7.668;2024-03-29T06:37:54;4.90;;;1.90;;
5730;SDS011;2890;51.950;7.668;2024-03-29T06:40:21;3.57;;;1.60;;
5730;SDS011;2890;51.950;7.668;2024-03-29T06:42:48;3.03;;;1.67;;
5730;SDS011;2890;51.950;7.668;2024-03-29T06:45:14;3.60;;;1.40;;
5730;SDS011;2890;51.950;7.668;2024-03-29T06:47:41;3.77;;;1.43;;
5730;SDS011;2890;51.950;7.668;2024-03-29T06:50:08;6.23;;;2.33;;
5730;SDS011;2890;51.950;7.668;2024-03-29T06:52:35;5.53;;;2.77;;
5730;SDS011;2890;51.950;7.668;2024-03-29T06:55:01;5.23;;;3.70;;
5730;SDS011;2890;51.950;7.668;2024-03-29T06:57:29;5.27;;;4.03;;
5730;SDS011;2890;51.950;7.668;2024-03-29T06:59:56;4.73;;;4.37;;
5730;SDS011;2890;51.950;7.668;2024-03-29T07:02:23;4.87;;;4.47;;
5730;SDS011;2890;51.950;7.668;2024-03-29T07:04:50;6.00;;;4.00;;
5730;SDS011;2890;51.950;7.668;2024-03-29T07:07:16;4.47;;;4.07;;
5730;SDS011;2890;51.950;7.668;2024-03-29T07:09:42;5.80;;;3.03;;
5730;SDS011;2890;51.950;7.668;2024-03-29T07:12:09;6.27;;;2.80;;
5730;SDS011;2890;51.950;7.668;2024-03-29T07:14:37;6.70;;;2.57;;
5730;SDS011;2890;51.950;7.668;2024-03-29T07:17:03;5.07;;;3.33;;
5730;SDS011;2890;51.950;7.668;2024-03-29T07:19:30;3.13;;;2.63;;
5730;SDS011;2890;51.950;7.668;2024-03-29T07:21:56;6.10;;;2.90;;
5730;SDS011;2890;51.950;7.668;2024-03-29T07:24:23;6.43;;;3.30;;
5730;SDS011;2890;51.950;7.668;2024-03-29T07:26:50;8.53;;;2.47;;
5730;SDS011;2890;51.950;7.668;2024-03-29T07:29:16;8.17;;;2.73;;
5730;SDS011;2890;51.950;7.668;2024-03-29T07:31:44;3.77;;;1.90;;
5730;SDS011;2890;51.950;7.668;2024-03-29T07:34:10;5.87;;;2.00;;
5730;SDS011;2890;51.950;7.668;2024-03-29T07:36:37;4.93;;;2.67;;
5730;SDS011;2890;51.950;7.668;2024-03-29T07:39:05;4.53;;;2.83;;
5730;SDS011;2890;51.950;7.668;2024-03-29T07:41:31;8.43;;;2.40;;
5730;SDS011;2890;51.950;7.668;2024-03-29T07:43:58;5.70;;;1.83;;
5730;SDS011;2890;51.950;7.668;2024-03-29T07:46:27;6.70;;;2.40;;
5730;SDS011;2890;51.950;7.668;2024-03-29T07:48:55;2.70;;;1.87;;
5730;SDS011;2890;51.950;7.668;2024-03-29T07:51:22;6.47;;;2.20;;
5730;SDS011;2890;51.950;7.668;2024-03-29T07:53:48;2.50;;;2.30;;
5730;SDS011;2890;51.950;7.668;2024-03-29T07:56:15;3.43;;;1.90;;
5730;SDS011;2890;51.950;7.668;2024-03-29T07:58:42;3.13;;;2.10;;
5730;SDS011;2890;51.950;7.668;2024-03-29T08:01:08;2.33;;;1.73;;
5730;SDS011;2890;51.950;7.668;2024-03-29T08:03:35;4.07;;;1.87;;
5730;SDS011;2890;51.950;7.668;2024-03-29T08:06:03;3.80;;;2.30;;
5730;SDS011;2890;51.950;7.668;2024-03-29T08:08:30;4.00;;;2.53;;
5730;SDS011;2890;51.950;7.668;2024-03-29T08:10:57;4.57;;;1.87;;
5730;SDS011;2890;51.950;7.668;2024-03-29T08:13:23;3.60;;;2.30;;
5730;SDS011;2890;51.950;7.668;2024-03-29T08:15:55;4.10;;;2.30;;
5730;SDS011;2890;51.950;7.668;2024-03-29T08:18:22;3.43;;;2.77;;
5730;SDS011;2890;51.950;7.668;2024-03-29T08:20:49;4.83;;;2.10;;
5730;SDS011;2890;51.950;7.668;2024-03-29T08:23:16;6.47;;;2.00;;
5730;SDS011;2890;51.950;7.668;2024-03-29T08:25:43;2.20;;;2.00;;
5730;SDS011;2890;51.950;7.668;2024-03-29T08:28:09;3.33;;;2.10;;
5730;SDS011;2890;51.950;7.668;2024-03-29T08:30:36;4.83;;;2.27;;
5730;SDS011;2890;51.950;7.668;2024-03-29T08:33:03;4.23;;;2.50;;
5730;SDS011;2890;51.950;7.668;2024-03-29T08:35:30;2.27;;;1.93;;
5730;SDS011;2890;51.950;7.668;2024-03-29T08:37:56;3.00;;;2.30;;
5730;SDS011;2890;51.950;7.668;2024-03-29T08:40:24;3.03;;;2.33;;
5730;SDS011;2890;51.950;7.668;2024-03-29T08:42:53;4.77;;;2.53;;
5730;SDS011;2890;51.950;7.668;2024-03-29T08:45:20;3.17;;;2.23;;
5730;SDS011;2890;51.950;7.668;2024-03-29T08:47:47;7.50;;;2.97;;
5730;SDS011;2890;51.950;7.668;2024-03-29T08:50:13;3.97;;;2.50;;
5730;SDS011;2890;51.950;7.668;2024-03-29T08:52:40;3.33;;;2.40;;
5730;SDS011;2890;51.950;7.668;2024-03-29T08:55:07;3.77;;;2.30;;
5730;SDS011;2890;51.950;7.668;2024-03-29T08:57:35;5.50;;;2.30;;
5730;SDS011;2890;51.950;7.668;2024-03-29T09:00:02;5.93;;;2.30;;
5730;SDS011;2890;51.950;7.668;2024-03-29T09:02:29;2.13;;;1.83;;
5730;SDS011;2890;51.950;7.668;2024-03-29T09:04:56;4.10;;;2.30;;
5730;SDS011;2890;51.950;7.668;2024-03-29T09:07:24;2.73;;;1.60;;
5730;SDS011;2890;51.950;7.668;2024-03-29T09:09:50;3.10;;;1.90;;
5730;SDS011;2890;51.950;7.668;2024-03-29T09:12:17;8.77;;;2.30;;
5730;SDS011;2890;51.950;7.668;2024-03-29T09:14:45;2.43;;;2.13;;
5730;SDS011;2890;51.950;7.668;2024-03-29T09:17:11;4.67;;;2.20;;
5730;SDS011;2890;51.950;7.668;2024-03-29T09:19:38;2.60;;;2.27;;
5730;SDS011;2890;51.950;7.668;2024-03-29T09:22:04;3.53;;;2.33;;
5730;SDS011;2890;51.950;7.668;2024-03-29T09:24:31;6.10;;;1.80;;
5730;SDS011;2890;51.950;7.668;2024-03-29T09:26:59;2.00;;;1.80;;
5730;SDS011;2890;51.950;7.668;2024-03-29T09:29:25;3.30;;;1.90;;
5730;SDS011;2890;51.950;7.668;2024-03-29T09:31:53;3.70;;;1.87;;
5730;SDS011;2890;51.950;7.668;2024-03-29T09:34:20;3.17;;;2.00;;
5730;SDS011;2890;51.950;7.668;2024-03-29T09:36:48;2.50;;;1.93;;
5730;SDS011;2890;51.950;7.668;2024-03-29T09:39:14;2.10;;;1.53;;
5730;SDS011;2890;51.950;7.668;2024-03-29T09:41:41;2.00;;;1.40;;
5730;SDS011;2890;51.950;7.668;2024-03-29T09:44:11;3.00;;;1.40;;
5730;SDS011;2890;51.950;7.668;2024-03-29T09:46:38;1.93;;;1.20;;
5730;SDS011;2890;51.950;7.668;2024-03-29T09:49:06;1.80;;;1.47;;
5730;SDS011;2890;51.950;7.668;2024-03-29T09:51:33;2.40;;;1.50;;
5730;SDS011;2890;51.950;7.668;2024-03-29T09:54:00;2.20;;;1.70;;
5730;SDS011;2890;51.950;7.668;2024-03-29T09:56:28;2.03;;;1.23;;
5730;SDS011;2890;51.950;7.668;2024-03-29T09:58:55;2.83;;;1.40;;
5730;SDS011;2890;51.950;7.668;2024-03-29T10:01:22;1.57;;;1.30;;
5730;SDS011;2890;51.950;7.668;2024-03-29T10:03:49;1.53;;;1.10;;
5730;SDS011;2890;51.950;7.668;2024-03-29T10:06:17;1.80;;;1.50;;
5730;SDS011;2890;51.950;7.668;2024-03-29T10:08:44;2.43;;;1.53;;
5730;SDS011;2890;51.950;7.668;2024-03-29T10:11:11;2.80;;;1.60;;
5730;SDS011;2890;51.950;7.668;2024-03-29T10:13:41;2.47;;;1.70;;
5730;SDS011;2890;51.950;7.668;2024-03-29T10:16:08;2.17;;;1.70;;
5730;SDS011;2890;51.950;7.668;2024-03-29T10:18:36;3.53;;;1.87;;
5730;SDS011;2890;51.950;7.668;2024-03-29T10:21:03;5.30;;;1.77;;
5730;SDS011;2890;51.950;7.668;2024-03-29T10:23:33;2.97;;;1.83;;
5730;SDS011;2890;51.950;7.668;2024-03-29T10:26:00;1.93;;;1.73;;
5730;SDS011;2890;51.950;7.668;2024-03-29T10:28:29;4.07;;;2.40;;
5730;SDS011;2890;51.950;7.668;2024-03-29T10:30:56;2.80;;;2.20;;
5730;SDS011;2890;51.950;7.668;2024-03-29T10:33:23;4.73;;;2.87;;
5730;SDS011;2890;51.950;7.668;2024-03-29T10:35:53;4.13;;;3.30;;
5730;SDS011;2890;51.950;7.668;2024-03-29T10:38:20;3.67;;;2.20;;
5730;SDS011;2890;51.950;7.668;2024-03-29T10:40:48;3.20;;;2.47;;
5730;SDS011;2890;51.950;7.668;2024-03-29T10:43:15;3.97;;;2.37;;
5730;SDS011;2890;51.950;7.668;2024-03-29T10:45:43;3.03;;;2.10;;
5730;SDS011;2890;51.950;7.668;2024-03-29T10:48:10;6.77;;;2.47;;
5730;SDS011;2890;51.950;7.668;2024-03-29T10:50:37;3.40;;;2.50;;
5730;SDS011;2890;51.950;7.668;2024-03-29T10:53:07;3.30;;;3.00;;
5730;SDS011;2890;51.950;7.668;2024-03-29T10:55:35;3.60;;;2.43;;
5730;SDS011;2890;51.950;7.668;2024-03-29T10:58:04;2.93;;;2.23;;
5730;SDS011;2890;51.950;7.668;2024-03-29T11:00:32;2.50;;;2.30;;
5730;SDS011;2890;51.950;7.668;2024-03-29T11:03:05;3.60;;;3.00;;
5730;SDS011;2890;51.950;7.668;2024-03-29T11:05:35;2.60;;;2.40;;
5730;SDS011;2890;51.950;7.668;2024-03-29T11:08:04;2.50;;;2.30;;
5730;SDS011;2890;51.950;7.668;2024-03-29T11:10:34;3.60;;;2.67;;
5730;SDS011;2890;51.950;7.668;2024-03-29T11:13:05;3.13;;;2.50;;
5730;SDS011;2890;51.950;7.668;2024-03-29T11:15:40;2.60;;;2.40;;
5730;SDS011;2890;51.950;7.668;2024-03-29T11:18:07;3.00;;;2.33;;
5730;SDS011;2890;51.950;7.668;2024-03-29T11:20:34;2.37;;;2.17;;
5730;SDS011;2890;51.950;7.668;2024-03-29T11:23:03;3.20;;;2.40;;
5730;SDS011;2890;51.950;7.668;2024-03-29T11:25:40;3.13;;;2.27;;
5730;SDS011;2890;51.950;7.668;2024-03-29T11:28:09;2.40;;;2.20;;
5730;SDS011;2890;51.950;7.668;2024-03-29T11:30:41;3.00;;;2.20;;
5730;SDS011;2890;51.950;7.668;2024-03-29T11:35:51;2.20;;;1.50;;
5730;SDS011;2890;51.950;7.668;2024-03-29T11:38:18;2.00;;;1.53;;
5730;SDS011;2890;51.950;7.668;2024-03-29T11:40:53;2.93;;;1.60;;
5730;SDS011;2890;51.950;7.668;2024-03-29T11:43:21;2.23;;;1.87;;
5730;SDS011;2890;51.950;7.668;2024-03-29T11:45:48;2.50;;;1.80;;
5730;SDS011;2890;51.950;7.668;2024-03-29T11:48:17;1.63;;;1.53;;
5730;SDS011;2890;51.950;7.668;2024-03-29T11:50:45;3.80;;;2.17;;
5730;SDS011;2890;51.950;7.668;2024-03-29T11:53:12;2.10;;;1.90;;
5730;SDS011;2890;51.950;7.668;2024-03-29T11:55:39;2.13;;;1.63;;
5730;SDS011;2890;51.950;7.668;2024-03-29T11:58:05;2.83;;;2.10;;
5730;SDS011;2890;51.950;7.668;2024-03-29T12:00:33;2.30;;;2.10;;
5730;SDS011;2890;51.950;7.668;2024-03-29T12:03:00;2.63;;;2.43;;
5730;SDS011;2890;51.950;7.668;2024-03-29T12:05:26;3.03;;;2.27;;
5730;SDS011;2890;51.950;7.668;2024-03-29T12:07:53;2.90;;;1.90;;
5730;SDS011;2890;51.950;7.668;2024-03-29T12:10:19;2.07;;;1.87;;
5730;SDS011;2890;51.950;7.668;2024-03-29T12:12:46;2.80;;;2.10;;
5730;SDS011;2890;51.950;7.668;2024-03-29T12:15:12;2.80;;;2.37;;
5730;SDS011;2890;51.950;7.668;2024-03-29T12:17:41;2.50;;;2.17;;
5730;SDS011;2890;51.950;7.668;2024-03-29T12:20:13;2.17;;;1.70;;
5730;SDS011;2890;51.950;7.668;2024-03-29T12:22:41;2.23;;;2.03;;
5730;SDS011;2890;51.950;7.668;2024-03-29T12:25:08;3.13;;;1.73;;
5730;SDS011;2890;51.950;7.668;2024-03-29T12:27:34;2.20;;;2.00;;
5730;SDS011;2890;51.950;7.668;2024-03-29T12:30:01;2.10;;;1.77;;
5730;SDS011;2890;51.950;7.668;2024-03-29T12:32:27;1.97;;;1.60;;
5730;SDS011;2890;51.950;7.668;2024-03-29T12:34:56;3.33;;;2.10;;
5730;SDS011;2890;51.950;7.668;2024-03-29T12:37:33;2.93;;;2.00;;
5730;SDS011;2890;51.950;7.668;2024-03-29T12:40:00;3.20;;;1.83;;
5730;SDS011;2890;51.950;7.668;2024-03-29T12:42:27;2.20;;;2.00;;
5730;SDS011;2890;51.950;7.668;2024-03-29T12:44:54;2.73;;;1.90;;
5730;SDS011;2890;51.950;7.668;2024-03-29T12:47:20;2.13;;;1.67;;
5730;SDS011;2890;51.950;7.668;2024-03-29T12:49:47;2.00;;;1.60;;
5730;SDS011;2890;51.950;7.668;2024-03-29T12:52:15;1.90;;;1.60;;
5730;SDS011;2890;51.950;7.668;2024-03-29T12:54:42;2.77;;;1.93;;
5730;SDS011;2890;51.950;7.668;2024-03-29T12:57:09;2.40;;;1.63;;
5730;SDS011;2890;51.950;7.668;2024-03-29T12:59:36;2.00;;;1.70;;
5730;SDS011;2890;51.950;7.668;2024-03-29T13:02:03;2.20;;;1.90;;
5730;SDS011;2890;51.950;7.668;2024-03-29T13:04:29;2.50;;;2.30;;
5730;SDS011;2890;51.950;7.668;2024-03-29T13:06:56;3.47;;;3.17;;
5730;SDS011;2890;51.950;7.668;2024-03-29T13:09:24;2.80;;;2.60;;
5730;SDS011;2890;51.950;7.668;2024-03-29T13:11:50;2.50;;;2.30;;
5730;SDS011;2890;51.950;7.668;2024-03-29T13:14:17;3.00;;;2.80;;
5730;SDS011;2890;51.950;7.668;2024-03-29T13:16:43;3.67;;;2.60;;
5730;SDS011;2890;51.950;7.668;2024-03-29T13:19:10;2.47;;;2.27;;
5730;SDS011;2890;51.950;7.668;2024-03-29T13:21:36;2.40;;;2.20;;
5730;SDS011;2890;51.950;7.668;2024-03-29T13:24:03;3.13;;;2.50;;
5730;SDS011;2890;51.950;7.668;2024-03-29T13:26:31;2.50;;;2.30;;
5730;SDS011;2890;51.950;7.668;2024-03-29T13:28:58;2.30;;;1.97;;
5730;SDS011;2890;51.950;7.668;2024-03-29T13:31:25;2.97;;;2.10;;
5730;SDS011;2890;51.950;7.668;2024-03-29T13:33:53;2.40;;;2.20;;
5730;SDS011;2890;51.950;7.668;2024-03-29T13:36:25;2.50;;;2.30;;
5730;SDS011;2890;51.950;7.668;2024-03-29T13:38:51;3.00;;;2.60;;
5730;SDS011;2890;51.950;7.668;2024-03-29T13:41:18;2.23;;;1.80;;
5730;SDS011;2890;51.950;7.668;2024-03-29T13:43:46;2.07;;;1.87;;
5730;SDS011;2890;51.950;7.668;2024-03-29T13:46:13;2.50;;;2.30;;
5730;SDS011;2890;51.950;7.668;2024-03-29T13:48:39;3.17;;;2.87;;
5730;SDS011;2890;51.950;7.668;2024-03-29T13:51:06;2.27;;;1.83;;
5730;SDS011;2890;51.950;7.668;2024-03-29T13:53:33;5.20;;;2.00;;
5730;SDS011;2890;51.950;7.668;2024-03-29T13:56:00;2.87;;;2.10;;
5730;SDS011;2890;51.950;7.668;2024-03-29T13:58:28;1.87;;;1.77;;
5730;SDS011;2890;51.950;7.668;2024-03-29T14:00:56;2.40;;;2.10;;
5730;SDS011;2890;51.950;7.668;2024-03-29T14:03:25;2.10;;;1.90;;
5730;SDS011;2890;51.950;7.668;2024-03-29T14:05:51;4.03;;;2.20;;
5730;SDS011;2890;51.950;7.668;2024-03-29T14:08:18;2.30;;;1.43;;
5730;SDS011;2890;51.950;7.668;2024-03-29T14:10:44;1.70;;;1.57;;
5730;SDS011;2890;51.950;7.668;2024-03-29T14:13:11;2.33;;;1.63;;
5730;SDS011;2890;51.950;7.668;2024-03-29T14:15:38;1.67;;;1.57;;
5730;SDS011;2890;51.950;7.668;2024-03-29T14:18:05;2.00;;;1.70;;
5730;SDS011;2890;51.950;7.668;2024-03-29T14:20:32;3.20;;;1.97;;
5730;SDS011;2890;51.950;7.668;2024-03-29T14:22:58;1.70;;;1.47;;
5730;SDS011;2890;51.950;7.668;2024-03-29T14:25:29;2.93;;;2.23;;
5730;SDS011;2890;51.950;7.668;2024-03-29T14:27:55;2.80;;;1.40;;
5730;SDS011;2890;51.950;7.668;2024-03-29T14:30:24;2.10;;;1.23;;
5730;SDS011;2890;51.950;7.668;2024-03-29T14:32:51;2.20;;;1.50;;
5730;SDS011;2890;51.950;7.668;2024-03-29T14:35:19;2.63;;;1.50;;
5730;SDS011;2890;51.950;7.668;2024-03-29T14:37:46;1.40;;;0.80;;
5730;SDS011;2890;51.950;7.668;2024-03-29T14:40:13;1.40;;;0.90;;
5730;SDS011;2890;51.950;7.668;2024-03-29T14:42:40;1.63;;;0.90;;
5730;SDS011;2890;51.950;7.668;2024-03-29T14:45:08;3.20;;;1.20;;
5730;SDS011;2890;51.950;7.668;2024-03-29T14:47:36;1.63;;;1.47;;
5730;SDS011;2890;51.950;7.668;2024-03-29T14:50:03;2.17;;;1.00;;
5730;SDS011;2890;51.950;7.668;2024-03-29T14:52:34;1.70;;;1.20;;
5730;SDS011;2890;51.950;7.668;2024-03-29T14:55:01;2.33;;;1.33;;
5730;SDS011;2890;51.950;7.668;2024-03-29T14:57:27;2.70;;;1.20;;
5730;SDS011;2890;51.950;7.668;2024-03-29T14:59:54;1.30;;;0.90;;
5730;SDS011;2890;51.950;7.668;2024-03-29T15:02:20;1.70;;;0.90;;
5730;SDS011;2890;51.950;7.668;2024-03-29T15:04:47;2.77;;;1.30;;
5730;SDS011;2890;51.950;7.668;2024-03-29T15:07:13;1.37;;;0.70;;
5730;SDS011;2890;51.950;7.668;2024-03-29T15:09:41;1.40;;;1.10;;
5730;SDS011;2890;51.950;7.668;2024-03-29T15:12:08;1.60;;;0.90;;
5730;SDS011;2890;51.950;7.668;2024-03-29T15:14:34;1.37;;;1.27;;
5730;SDS011;2890;51.950;7.668;2024-03-29T15:17:01;1.90;;;1.00;;